createdAt,value
2019-06-15T00:00:36.596Z,0.00
2019-06-15T00:01:36.748Z,0.00
2019-06-15T00:02:36.901Z,0.00
2019-06-15T00:03:37.051Z,0.00
2019-06-15T00:04:37.206Z,0.00
2019-06-15T00:05:37.356Z,0.00
2019-06-15T00:06:37.509Z,0.00
2019-06-15T00:07:37.663Z,0.00
2019-06-15T00:08:37.820Z,0.00
2019-06-15T00:09:37.964Z,0.00
2019-06-15T00:10:38.120Z,0.00
2019-06-15T00:11:38.274Z,0.00
2019-06-15T00:12:38.420Z,0.00
2019-06-15T00:13:38.573Z,0.00
2019-06-15T00:14:38.727Z,0.00
2019-06-15T00:15:38.880Z,0.00
2019-06-15T00:16:39.020Z,0.00
2019-06-15T00:17:39.173Z,0.00
2019-06-15T00:18:39.325Z,0.00
2019-06-15T00:19:39.478Z,0.00
2019-06-15T00:20:39.631Z,0.00
2019-06-15T00:21:39.784Z,0.00
2019-06-15T00:22:39.935Z,0.00
2019-06-15T00:23:40.089Z,0.00
2019-06-15T00:24:40.242Z,0.00
2019-06-15T00:25:40.392Z,0.00
2019-06-15T00:26:40.543Z,0.00
2019-06-15T00:27:40.697Z,0.00
2019-06-15T00:28:40.854Z,0.00
2019-06-15T00:29:41.004Z,0.00
2019-06-15T00:30:41.171Z,0.00
2019-06-15T00:31:41.316Z,0.00
2019-06-15T00:32:41.462Z,0.00
2019-06-15T00:33:41.614Z,0.00
2019-06-15T00:34:41.772Z,0.00
2019-06-15T00:35:41.916Z,0.00
2019-06-15T00:36:42.068Z,0.00
2019-06-15T00:37:42.220Z,0.00
2019-06-15T00:38:42.373Z,0.00
2019-06-15T00:39:42.523Z,0.00
2019-06-15T00:40:42.673Z,0.00
2019-06-15T00:41:42.824Z,0.00
2019-06-15T00:42:42.978Z,0.00
2019-06-15T00:43:43.130Z,0.00
2019-06-15T00:44:43.281Z,0.00
2019-06-15T00:45:43.434Z,0.00
2019-06-15T00:46:43.589Z,0.00
2019-06-15T00:47:43.744Z,0.00
2019-06-15T00:48:43.894Z,0.00
2019-06-15T00:49:44.042Z,0.00
2019-06-15T00:50:44.192Z,0.00
2019-06-15T00:51:44.348Z,0.00
2019-06-15T00:52:44.498Z,0.00
2019-06-15T00:53:44.648Z,0.00
2019-06-15T00:54:50.290Z,0.00
2019-06-15T00:55:44.954Z,0.00
2019-06-15T00:56:45.103Z,0.00
2019-06-15T00:57:45.256Z,0.00
2019-06-15T00:58:45.408Z,0.00
2019-06-15T00:59:45.560Z,0.00
2019-06-15T01:00:45.735Z,0.00
2019-06-15T01:01:45.868Z,0.00
2019-06-15T01:02:46.030Z,0.00
2019-06-15T01:03:46.166Z,0.00
2019-06-15T01:04:46.323Z,0.00
2019-06-15T01:05:46.474Z,0.00
2019-06-15T01:06:46.627Z,0.00
2019-06-15T01:07:46.777Z,0.00
2019-06-15T01:08:46.929Z,0.00
2019-06-15T01:09:47.081Z,0.00
2019-06-15T01:10:47.235Z,0.00
2019-06-15T01:11:47.384Z,0.00
2019-06-15T01:12:47.536Z,0.00
2019-06-15T01:13:47.690Z,0.00
2019-06-15T01:14:47.836Z,0.00
2019-06-15T01:15:47.989Z,0.00
2019-06-15T01:16:48.140Z,0.00
2019-06-15T01:17:48.292Z,0.00
2019-06-15T01:18:48.478Z,0.00
2019-06-15T01:19:48.597Z,0.00
2019-06-15T01:20:48.755Z,0.00
2019-06-15T01:21:48.903Z,0.00
2019-06-15T01:22:49.054Z,0.00
2019-06-15T01:23:49.207Z,0.00
2019-06-15T01:24:49.358Z,0.00
2019-06-15T01:25:49.508Z,0.00
2019-06-15T01:26:49.666Z,0.00
2019-06-15T01:27:49.814Z,0.00
2019-06-15T01:28:49.967Z,0.00
2019-06-15T01:29:50.120Z,0.00
2019-06-15T01:30:50.273Z,0.00
2019-06-15T01:31:50.506Z,0.00
2019-06-15T01:32:50.575Z,0.00
2019-06-15T01:33:50.726Z,0.00
2019-06-15T01:34:50.875Z,0.00
2019-06-15T01:35:51.028Z,0.00
2019-06-15T01:36:51.180Z,0.00
2019-06-15T01:37:51.332Z,0.00
2019-06-15T01:38:51.488Z,0.00
2019-06-15T01:39:51.639Z,0.00
2019-06-15T01:40:51.795Z,0.00
2019-06-15T01:41:51.941Z,0.00
2019-06-15T01:42:52.092Z,0.00
2019-06-15T01:43:52.270Z,0.00
2019-06-15T01:44:52.400Z,0.00
2019-06-15T01:45:52.550Z,0.00
2019-06-15T01:46:52.705Z,0.00
2019-06-15T01:47:52.856Z,0.00
2019-06-15T01:48:53.007Z,0.00
2019-06-15T01:49:53.161Z,0.00
2019-06-15T01:50:53.312Z,0.00
2019-06-15T01:51:53.465Z,0.00
2019-06-15T01:52:53.621Z,0.00
2019-06-15T01:53:53.769Z,0.00
2019-06-15T01:54:53.948Z,0.00
2019-06-15T01:55:54.075Z,0.00
2019-06-15T01:56:54.232Z,0.00
2019-06-15T01:57:54.380Z,0.00
2019-06-15T01:58:54.533Z,0.00
2019-06-15T01:59:54.683Z,0.00
2019-06-15T02:00:54.834Z,0.00
2019-06-15T02:01:54.988Z,0.00
2019-06-15T02:02:55.139Z,0.00
2019-06-15T02:03:55.292Z,0.00
2019-06-15T02:04:55.443Z,0.00
2019-06-15T02:05:55.591Z,0.00
2019-06-15T02:06:55.755Z,0.00
2019-06-15T02:07:55.894Z,0.00
2019-06-15T02:08:56.045Z,0.00
2019-06-15T02:09:56.195Z,0.00
2019-06-15T02:10:56.348Z,0.00
2019-06-15T02:11:56.501Z,0.00
2019-06-15T02:12:56.650Z,0.00
2019-06-15T02:13:56.802Z,0.00
2019-06-15T02:14:56.953Z,0.00
2019-06-15T02:15:57.120Z,0.00
2019-06-15T02:16:57.287Z,0.00
2019-06-15T02:17:57.406Z,0.00
2019-06-15T02:18:57.558Z,0.00
2019-06-15T02:19:57.714Z,0.00
2019-06-15T02:20:57.862Z,0.00
2019-06-15T02:21:58.016Z,0.00
2019-06-15T02:22:58.166Z,0.00
2019-06-15T02:23:58.320Z,0.00
2019-06-15T02:24:58.470Z,0.00
2019-06-15T02:25:58.622Z,0.00
2019-06-15T02:26:58.773Z,0.00
2019-06-15T02:27:58.922Z,0.00
2019-06-15T02:28:59.075Z,0.00
2019-06-15T02:29:59.229Z,0.00
2019-06-15T02:30:59.382Z,4.00
2019-06-15T02:31:59.527Z,4.00
2019-06-15T02:32:59.680Z,4.00
2019-06-15T02:33:59.827Z,0.00
2019-06-15T02:34:59.981Z,4.00
2019-06-15T02:36:00.133Z,4.00
2019-06-15T02:37:00.286Z,4.00
2019-06-15T02:38:00.443Z,4.00
2019-06-15T02:39:00.592Z,8.00
2019-06-15T02:40:00.741Z,4.00
2019-06-15T02:41:00.892Z,8.00
2019-06-15T02:42:01.041Z,8.00
2019-06-15T02:43:01.194Z,8.00
2019-06-15T02:44:01.347Z,8.00
2019-06-15T02:45:01.501Z,8.00
2019-06-15T02:46:01.664Z,12.00
2019-06-15T02:47:01.802Z,12.00
2019-06-15T02:48:02.027Z,12.00
2019-06-15T02:49:02.104Z,12.00
2019-06-15T02:50:02.289Z,16.00
2019-06-15T02:51:02.407Z,16.00
2019-06-15T02:52:02.557Z,20.00
2019-06-15T02:53:02.712Z,20.00
2019-06-15T02:54:02.864Z,24.00
2019-06-15T02:55:03.013Z,28.00
2019-06-15T02:56:03.163Z,28.00
2019-06-15T02:57:03.314Z,36.00
2019-06-15T02:58:03.468Z,40.00
2019-06-15T02:59:03.621Z,44.00
2019-06-15T03:00:03.786Z,48.00
2019-06-15T03:01:03.919Z,52.00
2019-06-15T03:02:04.069Z,64.00
2019-06-15T03:03:04.223Z,68.00
2019-06-15T03:04:04.374Z,76.00
2019-06-15T03:05:04.525Z,84.00
2019-06-15T03:06:04.677Z,92.00
2019-06-15T03:07:04.831Z,104.00
2019-06-15T03:08:04.977Z,108.00
2019-06-15T03:09:05.132Z,120.00
2019-06-15T03:10:05.285Z,132.00
2019-06-15T03:11:05.453Z,140.00
2019-06-15T03:12:05.584Z,156.00
2019-06-15T03:13:05.735Z,168.00
2019-06-15T03:14:05.897Z,184.00
2019-06-15T03:15:06.038Z,200.00
2019-06-15T03:16:06.187Z,216.00
2019-06-15T03:17:06.343Z,232.00
2019-06-15T03:18:06.495Z,248.00
2019-06-15T03:19:06.646Z,264.00
2019-06-15T03:20:06.797Z,288.00
2019-06-15T03:21:06.947Z,304.00
2019-06-15T03:22:07.099Z,324.00
2019-06-15T03:23:07.251Z,340.00
2019-06-15T03:24:07.402Z,352.00
2019-06-15T03:25:07.554Z,364.00
2019-06-15T03:26:07.706Z,376.00
2019-06-15T03:27:07.860Z,388.00
2019-06-15T03:28:08.007Z,396.00
2019-06-15T03:29:08.164Z,404.00
2019-06-15T03:30:08.333Z,416.00
2019-06-15T03:31:08.470Z,424.00
2019-06-15T03:32:08.621Z,432.00
2019-06-15T03:33:08.770Z,448.00
2019-06-15T03:34:08.922Z,460.00
2019-06-15T03:35:09.073Z,472.00
2019-06-15T03:36:09.223Z,484.00
2019-06-15T03:37:09.374Z,496.00
2019-06-15T03:38:09.527Z,512.00
2019-06-15T03:39:09.680Z,524.00
2019-06-15T03:40:09.832Z,544.00
2019-06-15T03:41:09.983Z,560.00
2019-06-15T03:42:10.133Z,576.00
2019-06-15T03:43:10.286Z,596.00
2019-06-15T03:44:10.439Z,620.00
2019-06-15T03:45:10.592Z,644.00
2019-06-15T03:46:10.743Z,668.00
2019-06-15T03:47:10.895Z,704.00
2019-06-15T03:48:11.046Z,732.00
2019-06-15T03:49:11.199Z,772.00
2019-06-15T03:50:11.358Z,816.00
2019-06-15T03:51:11.504Z,868.00
2019-06-15T03:52:11.656Z,916.00
2019-06-15T03:53:11.808Z,976.00
2019-06-15T03:54:11.963Z,1032.00
2019-06-15T03:55:12.113Z,1092.00
2019-06-15T03:56:21.102Z,1148.00
2019-06-15T03:57:12.418Z,1200.00
2019-06-15T03:58:12.570Z,1248.00
2019-06-15T03:59:12.723Z,1288.00
2019-06-15T04:00:12.872Z,1328.00
2019-06-15T04:01:13.026Z,1368.00
2019-06-15T04:02:13.174Z,1416.00
2019-06-15T04:03:13.328Z,1464.00
2019-06-15T04:04:13.480Z,1512.00
2019-06-15T04:05:13.631Z,1556.00
2019-06-15T04:06:13.786Z,1596.00
2019-06-15T04:07:13.938Z,1628.00
2019-06-15T04:08:14.091Z,1664.00
2019-06-15T04:09:14.242Z,1692.00
2019-06-15T04:10:14.393Z,1724.00
2019-06-15T04:11:14.554Z,1760.00
2019-06-15T04:12:14.728Z,1804.00
2019-06-15T04:13:14.853Z,1856.00
2019-06-15T04:14:15.004Z,1920.00
2019-06-15T04:15:15.156Z,1984.00
2019-06-15T04:16:15.307Z,2052.00
2019-06-15T04:17:15.475Z,2120.00
2019-06-15T04:18:15.635Z,2192.00
2019-06-15T04:19:15.765Z,2264.00
2019-06-15T04:20:15.916Z,2344.00
2019-06-15T04:21:16.127Z,2428.00
2019-06-15T04:22:16.218Z,2508.00
2019-06-15T04:23:16.368Z,2596.00
2019-06-15T04:24:16.563Z,2696.00
2019-06-15T04:25:16.666Z,2804.00
2019-06-15T04:26:16.819Z,2908.00
2019-06-15T04:27:16.969Z,3008.00
2019-06-15T04:28:17.138Z,3092.00
2019-06-15T04:29:17.277Z,3148.00
2019-06-15T04:30:17.429Z,3204.00
2019-06-15T04:31:17.584Z,3256.00
2019-06-15T04:32:17.734Z,3276.00
2019-06-15T04:33:17.884Z,3288.00
2019-06-15T04:34:18.035Z,3284.00
2019-06-15T04:35:18.185Z,3292.00
2019-06-15T04:36:18.357Z,3332.00
2019-06-15T04:37:18.491Z,3392.00
2019-06-15T04:38:18.638Z,3500.00
2019-06-15T04:39:18.808Z,3652.00
2019-06-15T04:40:18.943Z,3796.00
2019-06-15T04:41:19.097Z,3912.00
2019-06-15T04:42:19.249Z,3988.00
2019-06-15T04:43:19.400Z,4032.00
2019-06-15T04:44:19.552Z,4064.00
2019-06-15T04:45:19.703Z,4072.00
2019-06-15T04:46:19.857Z,4056.00
2019-06-15T04:47:20.011Z,4040.00
2019-06-15T04:48:20.164Z,4064.00
2019-06-15T04:49:20.314Z,4128.00
2019-06-15T04:50:20.468Z,4188.00
2019-06-15T04:51:20.619Z,4220.00
2019-06-15T04:52:20.773Z,4204.00
2019-06-15T04:53:20.925Z,4188.00
2019-06-15T04:54:21.170Z,4188.00
2019-06-15T04:55:21.230Z,4220.00
2019-06-15T04:56:21.384Z,4316.00
2019-06-15T04:57:21.552Z,4460.00
2019-06-15T04:58:21.692Z,4608.00
2019-06-15T04:59:21.845Z,4804.00
2019-06-15T05:00:22.012Z,5032.00
2019-06-15T05:01:22.157Z,5264.00
2019-06-15T05:02:22.299Z,5412.00
2019-06-15T05:03:22.456Z,5408.00
2019-06-15T05:04:22.610Z,5284.00
2019-06-15T05:05:22.763Z,5152.00
2019-06-15T05:06:22.925Z,5100.00
2019-06-15T05:07:23.069Z,5092.00
2019-06-15T05:08:23.221Z,5080.00
2019-06-15T05:09:23.412Z,5096.00
2019-06-15T05:10:23.526Z,5076.00
2019-06-15T05:11:23.680Z,5100.00
2019-06-15T05:12:23.833Z,5356.00
2019-06-15T05:13:23.986Z,5544.00
2019-06-15T05:14:24.140Z,5672.00
2019-06-15T05:15:24.292Z,5640.00
2019-06-15T05:16:24.445Z,5652.00
2019-06-15T05:17:24.600Z,5724.00
2019-06-15T05:18:24.774Z,5828.00
2019-06-15T05:19:24.906Z,5848.00
2019-06-15T05:20:25.074Z,5920.00
2019-06-15T05:21:25.228Z,5920.00
2019-06-15T05:22:25.387Z,5888.00
2019-06-15T05:23:25.529Z,5872.00
2019-06-15T05:24:25.688Z,5872.00
2019-06-15T05:25:25.839Z,5920.00
2019-06-15T05:26:25.989Z,5976.00
2019-06-15T05:27:26.141Z,6012.00
2019-06-15T05:28:26.293Z,6076.00
2019-06-15T05:29:26.449Z,6184.00
2019-06-15T05:30:26.610Z,6248.00
2019-06-15T05:31:26.752Z,6280.00
2019-06-15T05:32:26.905Z,6296.00
2019-06-15T05:33:27.060Z,6328.00
2019-06-15T05:34:27.213Z,6376.00
2019-06-15T05:35:27.364Z,6440.00
2019-06-15T05:36:27.535Z,6504.00
2019-06-15T05:37:27.662Z,6556.00
2019-06-15T05:38:27.814Z,6612.00
2019-06-15T05:39:27.970Z,6668.00
2019-06-15T05:40:28.121Z,6712.00
2019-06-15T05:41:28.277Z,6776.00
2019-06-15T05:42:28.429Z,6860.00
2019-06-15T05:43:28.583Z,6944.00
2019-06-15T05:44:28.735Z,7008.00
2019-06-15T05:45:28.888Z,7072.00
2019-06-15T05:46:29.039Z,7204.00
2019-06-15T05:47:29.197Z,7368.00
2019-06-15T05:48:29.348Z,7536.00
2019-06-15T05:49:29.502Z,7700.00
2019-06-15T05:50:29.654Z,7904.00
2019-06-15T05:51:29.808Z,8108.00
2019-06-15T05:52:29.976Z,8184.00
2019-06-15T05:53:30.128Z,8164.00
2019-06-15T05:54:30.279Z,7892.00
2019-06-15T05:55:30.435Z,7640.00
2019-06-15T05:56:33.410Z,7544.00
2019-06-15T05:57:30.732Z,7860.00
2019-06-15T05:58:30.883Z,7844.00
2019-06-15T05:59:31.039Z,7712.00
2019-06-15T06:00:31.196Z,7564.00
2019-06-15T06:01:31.350Z,7444.00
2019-06-15T06:02:31.502Z,7348.00
2019-06-15T06:03:31.655Z,7284.00
2019-06-15T06:04:31.810Z,7228.00
2019-06-15T06:05:31.965Z,7188.00
2019-06-15T06:06:32.119Z,7148.00
2019-06-15T06:07:32.278Z,7108.00
2019-06-15T06:08:32.438Z,7076.00
2019-06-15T06:09:32.586Z,7048.00
2019-06-15T06:10:32.739Z,7012.00
2019-06-15T06:11:32.896Z,7004.00
2019-06-15T06:12:33.050Z,7052.00
2019-06-15T06:13:33.205Z,7096.00
2019-06-15T06:14:33.366Z,7100.00
2019-06-15T06:15:33.511Z,7060.00
2019-06-15T06:16:33.664Z,7044.00
2019-06-15T06:17:33.822Z,7056.00
2019-06-15T06:18:33.977Z,7064.00
2019-06-15T06:19:34.135Z,7084.00
2019-06-15T06:20:34.286Z,7096.00
2019-06-15T06:21:34.435Z,7100.00
2019-06-15T06:22:34.594Z,7100.00
2019-06-15T06:23:34.744Z,7104.00
2019-06-15T06:24:34.897Z,7100.00
2019-06-15T06:25:35.051Z,7096.00
2019-06-15T06:26:35.206Z,7096.00
2019-06-15T06:27:36.764Z,7076.00
2019-06-15T06:28:35.521Z,7080.00
2019-06-15T06:29:35.669Z,7068.00
2019-06-15T06:30:35.821Z,7064.00
2019-06-15T06:31:35.979Z,7056.00
2019-06-15T06:32:36.131Z,7068.00
2019-06-15T06:33:36.285Z,7068.00
2019-06-15T06:34:36.446Z,7080.00
2019-06-15T06:35:36.594Z,7088.00
2019-06-15T06:36:36.750Z,7088.00
2019-06-15T06:37:36.906Z,7096.00
2019-06-15T06:38:37.060Z,7108.00
2019-06-15T06:39:37.215Z,7120.00
2019-06-15T06:40:37.370Z,7120.00
2019-06-15T06:41:37.524Z,7124.00
2019-06-15T06:42:37.713Z,7132.00
2019-06-15T06:43:37.831Z,7152.00
2019-06-15T06:44:37.989Z,7168.00
2019-06-15T06:45:38.191Z,7176.00
2019-06-15T06:46:38.294Z,7192.00
2019-06-15T06:47:38.448Z,7184.00
2019-06-15T06:48:38.603Z,7216.00
2019-06-15T06:49:38.758Z,7248.00
2019-06-15T06:50:41.250Z,7240.00
2019-06-15T06:51:39.066Z,7248.00
2019-06-15T06:52:39.220Z,7292.00
2019-06-15T06:53:39.379Z,7276.00
2019-06-15T06:54:39.530Z,7272.00
2019-06-15T06:55:39.688Z,7284.00
2019-06-15T06:56:39.850Z,7288.00
2019-06-15T06:57:51.892Z,7276.00
2019-06-15T06:58:40.144Z,7272.00
2019-06-15T06:59:40.302Z,7268.00
2019-06-15T07:00:40.452Z,7272.00
2019-06-15T07:01:40.609Z,7252.00
2019-06-15T07:02:40.766Z,7272.00
2019-06-15T07:03:40.921Z,7244.00
2019-06-15T07:04:41.075Z,7236.00
2019-06-15T07:05:41.243Z,7224.00
2019-06-15T07:06:41.452Z,7200.00
2019-06-15T07:07:41.539Z,7180.00
2019-06-15T07:08:41.679Z,7148.00
2019-06-15T07:09:41.837Z,7136.00
2019-06-15T07:10:41.987Z,7136.00
2019-06-15T07:11:42.146Z,7112.00
2019-06-15T07:12:42.298Z,7112.00
2019-06-15T07:13:42.452Z,7092.00
2019-06-15T07:14:42.609Z,7088.00
2019-06-15T07:15:42.762Z,7080.00
2019-06-15T07:16:42.941Z,7088.00
2019-06-15T07:17:43.076Z,7076.00
2019-06-15T07:18:43.233Z,7092.00
2019-06-15T07:19:43.394Z,7104.00
2019-06-15T07:20:43.545Z,7128.00
2019-06-15T07:21:43.744Z,7164.00
2019-06-15T07:22:43.851Z,7216.00
2019-06-15T07:23:44.063Z,7240.00
2019-06-15T07:24:44.190Z,7268.00
2019-06-15T07:25:44.313Z,7264.00
2019-06-15T07:26:44.462Z,7356.00
2019-06-15T07:27:44.618Z,7428.00
2019-06-15T07:28:44.775Z,7508.00
2019-06-15T07:29:44.935Z,7544.00
2019-06-15T07:30:45.091Z,7560.00
2019-06-15T07:31:45.245Z,7584.00
2019-06-15T07:32:45.400Z,7592.00
2019-06-15T07:33:45.557Z,7616.00
2019-06-15T07:34:45.714Z,7668.00
2019-06-15T07:35:45.869Z,7708.00
2019-06-15T07:36:46.024Z,7752.00
2019-06-15T07:37:46.181Z,7764.00
2019-06-15T07:38:46.337Z,7816.00
2019-06-15T07:39:46.496Z,7844.00
2019-06-15T07:40:46.649Z,7844.00
2019-06-15T07:41:46.806Z,7864.00
2019-06-15T07:42:46.962Z,7784.00
2019-06-15T07:43:47.116Z,7696.00
2019-06-15T07:44:47.271Z,7612.00
2019-06-15T07:45:47.428Z,7520.00
2019-06-15T07:46:47.584Z,7468.00
2019-06-15T07:47:47.739Z,7376.00
2019-06-15T07:48:47.891Z,7284.00
2019-06-15T07:49:48.046Z,7208.00
2019-06-15T07:50:48.205Z,7156.00
2019-06-15T07:51:48.360Z,7116.00
2019-06-15T07:52:48.635Z,7092.00
2019-06-15T07:53:48.675Z,7032.00
2019-06-15T07:54:48.828Z,6972.00
2019-06-15T07:55:48.982Z,6904.00
2019-06-15T07:56:49.139Z,6868.00
2019-06-15T07:57:49.299Z,6816.00
2019-06-15T07:58:49.452Z,6780.00
2019-06-15T07:59:49.610Z,6756.00
2019-06-15T08:00:49.764Z,6748.00
2019-06-15T08:01:49.920Z,6728.00
2019-06-15T08:02:50.077Z,6708.00
2019-06-15T08:03:50.233Z,6688.00
2019-06-15T08:04:50.387Z,6672.00
2019-06-15T08:05:50.542Z,6704.00
2019-06-15T08:06:50.706Z,6720.00
2019-06-15T08:07:50.892Z,6720.00
2019-06-15T08:08:51.038Z,6728.00
2019-06-15T08:09:51.169Z,6716.00
2019-06-15T08:10:51.323Z,6728.00
2019-06-15T08:11:51.480Z,6720.00
2019-06-15T08:12:51.634Z,6708.00
2019-06-15T08:13:51.789Z,6728.00
2019-06-15T08:14:51.948Z,6688.00
2019-06-15T08:15:52.101Z,6652.00
2019-06-15T08:16:52.262Z,6628.00
2019-06-15T08:17:52.414Z,6636.00
2019-06-15T08:18:52.607Z,6636.00
2019-06-15T08:19:52.736Z,6716.00
2019-06-15T08:20:52.884Z,6688.00
2019-06-15T08:21:53.038Z,6688.00
2019-06-15T08:22:53.196Z,6672.00
2019-06-15T08:23:53.351Z,6684.00
2019-06-15T08:24:53.508Z,6684.00
2019-06-15T08:25:53.663Z,6628.00
2019-06-15T08:26:53.819Z,6520.00
2019-06-15T08:27:53.982Z,6476.00
2019-06-15T08:28:54.141Z,6448.00
2019-06-15T08:29:54.289Z,6456.00
2019-06-15T08:30:54.455Z,6480.00
2019-06-15T08:31:54.603Z,6508.00
2019-06-15T08:32:54.758Z,6532.00
2019-06-15T08:33:54.915Z,6608.00
2019-06-15T08:34:55.076Z,6640.00
2019-06-15T08:35:55.231Z,6600.00
2019-06-15T08:36:55.387Z,6520.00
2019-06-15T08:37:55.548Z,6516.00
2019-06-15T08:38:55.702Z,6500.00
2019-06-15T08:39:55.859Z,6512.00
2019-06-15T08:40:56.015Z,6544.00
2019-06-15T08:41:56.962Z,6544.00
2019-06-15T08:42:56.327Z,6540.00
2019-06-15T08:43:56.482Z,6564.00
2019-06-15T08:44:56.640Z,6688.00
2019-06-15T08:45:56.795Z,6832.00
2019-06-15T08:46:59.319Z,6980.00
2019-06-15T08:47:57.116Z,7312.00
2019-06-15T08:48:57.353Z,7888.00
2019-06-15T08:49:57.422Z,8192.00
2019-06-15T08:50:57.615Z,8024.00
2019-06-15T08:51:57.765Z,8736.00
2019-06-15T08:52:57.943Z,9048.00
2019-06-15T08:53:58.090Z,8876.00
2019-06-15T08:54:58.241Z,9048.00
2019-06-15T08:55:58.393Z,7432.00
2019-06-15T08:56:58.549Z,8612.00
2019-06-15T08:57:58.707Z,8452.00
2019-06-15T08:58:58.869Z,9108.00
2019-06-15T08:59:59.016Z,9920.00
2019-06-15T09:00:59.173Z,10860.00
2019-06-15T09:01:59.330Z,10440.00
2019-06-15T09:02:59.487Z,7224.00
2019-06-15T09:03:59.645Z,8080.00
2019-06-15T09:04:59.799Z,6172.00
2019-06-15T09:05:59.958Z,6776.00
2019-06-15T09:07:00.118Z,7932.00
2019-06-15T09:08:00.282Z,7724.00
2019-06-15T09:09:00.438Z,7808.00
2019-06-15T09:10:00.590Z,5768.00
2019-06-15T09:11:00.751Z,6200.00
2019-06-15T09:12:00.910Z,7860.00
2019-06-15T09:13:01.066Z,6296.00
2019-06-15T09:14:01.221Z,7312.00
2019-06-15T09:15:01.424Z,7420.00
2019-06-15T09:16:01.546Z,7080.00
2019-06-15T09:17:01.735Z,7824.00
2019-06-15T09:18:01.851Z,8268.00
2019-06-15T09:19:02.006Z,8108.00
2019-06-15T09:20:02.160Z,9400.00
2019-06-15T09:21:02.360Z,10200.00
2019-06-15T09:22:02.498Z,11724.00
2019-06-15T09:23:02.631Z,12428.00
2019-06-15T09:24:02.794Z,13604.00
2019-06-15T09:25:02.947Z,13216.00
2019-06-15T09:26:03.106Z,13808.00
2019-06-15T09:27:03.260Z,15072.00
2019-06-15T09:28:03.418Z,12368.00
2019-06-15T09:29:11.374Z,11972.00
2019-06-15T09:30:03.738Z,13564.00
2019-06-15T09:31:03.891Z,12392.00
2019-06-15T09:32:04.048Z,11736.00
2019-06-15T09:33:04.202Z,10716.00
2019-06-15T09:34:17.985Z,9060.00
2019-06-15T09:35:04.517Z,8604.00
2019-06-15T09:36:04.679Z,11408.00
2019-06-15T09:37:04.835Z,11152.00
2019-06-15T09:38:04.995Z,10836.00
2019-06-15T09:39:05.152Z,12368.00
2019-06-15T09:40:05.307Z,12452.00
2019-06-15T09:41:05.466Z,10784.00
2019-06-15T09:42:05.625Z,10328.00
2019-06-15T09:43:05.781Z,10656.00
2019-06-15T09:44:05.942Z,11188.00
2019-06-15T09:45:06.095Z,13952.00
2019-06-15T09:46:06.288Z,14304.00
2019-06-15T09:47:06.411Z,13492.00
2019-06-15T09:48:06.602Z,15776.00
2019-06-15T09:49:06.723Z,15452.00
2019-06-15T09:50:06.876Z,16768.00
2019-06-15T09:51:07.031Z,14536.00
2019-06-15T09:52:07.190Z,14092.00
2019-06-15T09:53:07.343Z,14744.00
2019-06-15T09:54:07.500Z,15808.00
2019-06-15T09:55:07.657Z,13828.00
2019-06-15T09:56:07.812Z,12872.00
2019-06-15T09:57:07.969Z,12088.00
2019-06-15T09:58:08.140Z,11188.00
2019-06-15T09:59:08.309Z,10124.00
2019-06-15T10:00:08.453Z,8816.00
2019-06-15T10:01:08.612Z,7072.00
2019-06-15T10:02:08.771Z,6288.00
2019-06-15T10:03:08.929Z,6116.00
2019-06-15T10:04:09.089Z,6536.00
2019-06-15T10:05:09.244Z,7512.00
2019-06-15T10:06:11.729Z,8696.00
2019-06-15T10:07:09.560Z,9420.00
2019-06-15T10:08:09.718Z,10252.00
2019-06-15T10:09:09.878Z,11724.00
2019-06-15T10:10:10.047Z,13740.00
2019-06-15T10:11:10.198Z,16064.00
2019-06-15T10:12:10.350Z,14380.00
2019-06-15T10:13:10.506Z,14136.00
2019-06-15T10:14:10.664Z,14352.00
2019-06-15T10:15:10.822Z,14308.00
2019-06-15T10:16:10.982Z,12688.00
2019-06-15T10:17:11.142Z,11488.00
2019-06-15T10:18:11.297Z,10644.00
2019-06-15T10:19:11.456Z,10652.00
2019-06-15T10:20:11.609Z,11360.00
2019-06-15T10:21:11.768Z,11904.00
2019-06-15T10:22:11.947Z,11648.00
2019-06-15T10:23:12.083Z,11040.00
2019-06-15T10:24:12.241Z,10120.00
2019-06-15T10:25:12.399Z,10644.00
2019-06-15T10:26:12.557Z,9244.00
2019-06-15T10:27:12.719Z,8504.00
2019-06-15T10:28:12.873Z,9392.00
2019-06-15T10:29:13.038Z,8048.00
2019-06-15T10:30:13.195Z,9716.00
2019-06-15T10:31:13.355Z,9776.00
2019-06-15T10:32:13.511Z,9624.00
2019-06-15T10:33:13.667Z,9692.00
2019-06-15T10:34:13.827Z,9824.00
2019-06-15T10:35:13.984Z,9804.00
2019-06-15T10:36:14.142Z,9992.00
2019-06-15T10:37:14.308Z,11360.00
2019-06-15T10:38:14.457Z,14496.00
2019-06-15T10:39:14.614Z,14528.00
2019-06-15T10:40:14.788Z,13500.00
2019-06-15T10:41:14.931Z,14148.00
2019-06-15T10:42:15.088Z,15328.00
2019-06-15T10:43:15.246Z,14604.00
2019-06-15T10:44:15.406Z,16448.00
2019-06-15T10:45:15.565Z,16736.00
2019-06-15T10:46:15.739Z,16800.00
2019-06-15T10:47:15.881Z,15296.00
2019-06-15T10:48:16.038Z,15808.00
2019-06-15T10:49:16.196Z,15456.00
2019-06-15T10:50:16.355Z,12680.00
2019-06-15T10:51:16.516Z,13444.00
2019-06-15T10:52:16.667Z,13084.00
2019-06-15T10:53:16.823Z,12940.00
2019-06-15T10:54:16.981Z,12284.00
2019-06-15T10:55:17.143Z,12740.00
2019-06-15T10:56:17.299Z,11656.00
2019-06-15T10:57:17.457Z,13888.00
2019-06-15T10:58:17.617Z,14240.00
2019-06-15T10:59:17.776Z,12236.00
2019-06-15T11:00:17.935Z,11876.00
2019-06-15T11:01:18.093Z,13020.00
2019-06-15T11:02:18.267Z,12288.00
2019-06-15T11:03:18.410Z,11604.00
2019-06-15T11:04:18.564Z,11092.00
2019-06-15T11:05:18.724Z,10372.00
2019-06-15T11:06:18.889Z,9616.00
2019-06-15T11:07:19.040Z,8748.00
2019-06-15T11:08:19.224Z,8056.00
2019-06-15T11:09:19.357Z,7568.00
2019-06-15T11:10:19.511Z,7184.00
2019-06-15T11:11:21.656Z,7404.00
2019-06-15T11:12:19.838Z,7136.00
2019-06-15T11:13:19.989Z,8212.00
2019-06-15T11:14:20.141Z,8692.00
2019-06-15T11:15:20.298Z,9212.00
2019-06-15T11:16:20.459Z,9288.00
2019-06-15T11:17:20.616Z,9492.00
2019-06-15T11:18:20.773Z,9508.00
2019-06-15T11:19:20.935Z,9952.00
2019-06-15T11:20:21.108Z,11020.00
2019-06-15T11:21:21.257Z,12416.00
2019-06-15T11:22:21.415Z,11180.00
2019-06-15T11:23:21.578Z,11292.00
2019-06-15T11:24:21.731Z,11264.00
2019-06-15T11:25:21.889Z,11128.00
2019-06-15T11:26:22.070Z,11744.00
2019-06-15T11:27:22.211Z,14944.00
2019-06-15T11:28:22.388Z,14464.00
2019-06-15T11:29:22.521Z,12140.00
2019-06-15T11:30:22.682Z,8760.00
2019-06-15T11:31:22.844Z,9276.00
2019-06-15T11:32:23.009Z,7964.00
2019-06-15T11:33:23.224Z,8112.00
2019-06-15T11:34:23.328Z,7944.00
2019-06-15T11:35:23.488Z,8124.00
2019-06-15T11:36:23.642Z,8512.00
2019-06-15T11:37:23.804Z,8816.00
2019-06-15T11:38:23.959Z,9076.00
2019-06-15T11:39:24.119Z,7816.00
2019-06-15T11:40:24.277Z,8928.00
2019-06-15T11:41:24.432Z,8580.00
2019-06-15T11:42:24.593Z,8448.00
2019-06-15T11:43:24.749Z,8284.00
2019-06-15T11:44:24.915Z,8984.00
2019-06-15T11:45:25.065Z,9744.00
2019-06-15T11:46:25.224Z,10924.00
2019-06-15T11:47:25.383Z,12348.00
2019-06-15T11:48:25.539Z,13868.00
2019-06-15T11:49:25.697Z,14880.00
2019-06-15T11:50:25.855Z,14336.00
2019-06-15T11:51:26.015Z,12868.00
2019-06-15T11:52:26.175Z,12516.00
2019-06-15T11:53:26.334Z,13400.00
2019-06-15T11:54:26.490Z,14112.00
2019-06-15T11:55:38.575Z,14144.00
2019-06-15T11:56:26.804Z,13600.00
2019-06-15T11:57:26.959Z,14400.00
2019-06-15T11:58:27.119Z,12940.00
2019-06-15T11:59:27.299Z,13864.00
2019-06-15T12:00:31.543Z,13396.00
2019-06-15T12:01:27.593Z,13004.00
2019-06-15T12:02:27.776Z,11884.00
2019-06-15T12:03:27.910Z,11084.00
2019-06-15T12:04:28.071Z,10764.00
2019-06-15T12:05:28.272Z,10324.00
2019-06-15T12:06:28.392Z,9960.00
2019-06-15T12:07:28.549Z,10144.00
2019-06-15T12:08:28.715Z,11216.00
2019-06-15T12:09:28.868Z,12044.00
2019-06-15T12:10:29.027Z,12928.00
2019-06-15T12:11:29.184Z,12032.00
2019-06-15T12:12:29.343Z,11024.00
2019-06-15T12:13:29.503Z,10080.00
2019-06-15T12:14:29.665Z,7644.00
2019-06-15T12:15:29.822Z,9100.00
2019-06-15T12:16:29.982Z,8952.00
2019-06-15T12:17:30.201Z,9264.00
2019-06-15T12:18:30.312Z,9524.00
2019-06-15T12:19:30.472Z,7816.00
2019-06-15T12:20:30.678Z,8376.00
2019-06-15T12:21:30.787Z,9368.00